sensor_id;sensor_type;location;lat;lon;timestamp;pressure;altitude;pressure_sealevel;temperature;humidity
7309;BME280;3695;53.330;9.876;2022-12-11T00:00:33;103103.88;;;-0.52;100.00
7309;BME280;3695;53.330;9.876;2022-12-11T00:03:02;103111.16;;;-0.86;100.00
7309;BME280;3695;53.330;9.876;2022-12-11T00:05:28;103152.88;;;-0.55;100.00
7309;BME280;3695;53.330;9.876;2022-12-11T00:07:55;103123.59;;;-0.71;100.00
7309;BME280;3695;53.330;9.876;2022-12-11T00:10:23;103131.28;;;-0.50;100.00
7309;BME280;3695;53.330;9.876;2022-12-11T00:12:49;103113.09;;;-0.42;100.00
7309;BME280;3695;53.330;9.876;2022-12-11T00:15:16;103088.53;;;-0.47;100.00
7309;BME280;3695;53.330;9.876;2022-12-11T00:17:42;103105.50;;;-0.34;100.00
7309;BME280;3695;53.330;9.876;2022-12-11T00:20:09;103071.28;;;-0.72;100.00
7309;BME280;3695;53.330;9.876;2022-12-11T00:22:36;103072.25;;;-0.73;100.00
7309;BME280;3695;53.330;9.876;2022-12-11T00:25:03;103097.47;;;-0.64;100.00
7309;BME280;3695;53.330;9.876;2022-12-11T00:27:31;103098.56;;;-0.52;100.00
7309;BME280;3695;53.330;9.876;2022-12-11T00:29:57;103093.66;;;-0.44;100.00
7309;BME280;3695;53.330;9.876;2022-12-11T00:32:24;103068.66;;;-0.87;100.00
7309;BME280;3695;53.330;9.876;2022-12-11T00:34:50;103087.72;;;-0.79;100.00
7309;BME280;3695;53.330;9.876;2022-12-11T00:37:17;103099.22;;;-0.79;100.00
7309;BME280;3695;53.330;9.876;2022-12-11T00:39:43;103086.56;;;-0.59;100.00
7309;BME280;3695;53.330;9.876;2022-12-11T00:42:10;103081.28;;;-0.45;100.00
7309;BME280;3695;53.330;9.876;2022-12-11T00:44:37;103048.72;;;-0.50;100.00
7309;BME280;3695;53.330;9.876;2022-12-11T00:47:04;103042.00;;;-0.42;100.00
7309;BME280;3695;53.330;9.876;2022-12-11T00:49:30;103062.03;;;-0.50;100.00
7309;BME280;3695;53.330;9.876;2022-12-11T00:51:57;103070.97;;;-0.51;100.00
7309;BME280;3695;53.330;9.876;2022-12-11T00:54:23;103048.31;;;-0.58;100.00
7309;BME280;3695;53.330;9.876;2022-12-11T00:56:50;103057.56;;;-0.50;100.00
7309;BME280;3695;53.330;9.876;2022-12-11T00:59:16;103033.81;;;-0.69;100.00
7309;BME280;3695;53.330;9.876;2022-12-11T01:01:44;103069.94;;;-0.49;100.00
7309;BME280;3695;53.330;9.876;2022-12-11T01:04:10;103031.88;;;-0.51;100.00
7309;BME280;3695;53.330;9.876;2022-12-11T01:06:38;102991.81;;;-0.49;100.00
7309;BME280;3695;53.330;9.876;2022-12-11T01:09:04;102985.72;;;-0.51;100.00
7309;BME280;3695;53.330;9.876;2022-12-11T01:11:48;102990.34;;;-0.39;100.00
7309;BME280;3695;53.330;9.876;2022-12-11T01:14:15;102910.66;;;-0.86;100.00
7309;BME280;3695;53.330;9.876;2022-12-11T01:16:41;102922.00;;;-0.54;100.00
7309;BME280;3695;53.330;9.876;2022-12-11T01:19:09;102918.09;;;-0.49;100.00
7309;BME280;3695;53.330;9.876;2022-12-11T01:21:35;102894.97;;;-0.63;100.00
7309;BME280;3695;53.330;9.876;2022-12-11T01:24:02;102915.72;;;-0.68;100.00
7309;BME280;3695;53.330;9.876;2022-12-11T01:26:29;102933.03;;;-0.60;100.00
7309;BME280;3695;53.330;9.876;2022-12-11T01:28:55;102934.53;;;-0.71;100.00
7309;BME280;3695;53.330;9.876;2022-12-11T01:31:22;102942.00;;;-0.47;100.00
7309;BME280;3695;53.330;9.876;2022-12-11T01:33:48;102920.19;;;-0.68;100.00
7309;BME280;3695;53.330;9.876;2022-12-11T01:36:18;102956.22;;;-0.63;100.00
7309;BME280;3695;53.330;9.876;2022-12-11T01:38:45;102957.47;;;-0.54;100.00
7309;BME280;3695;53.330;9.876;2022-12-11T01:41:12;102938.75;;;-0.52;100.00
7309;BME280;3695;53.330;9.876;2022-12-11T01:43:56;102908.78;;;-0.56;100.00
7309;BME280;3695;53.330;9.876;2022-12-11T01:46:23;102932.06;;;-0.59;100.00
7309;BME280;3695;53.330;9.876;2022-12-11T01:48:50;102894.97;;;-0.63;100.00
7309;BME280;3695;53.330;9.876;2022-12-11T01:51:18;102877.66;;;-0.55;100.00
7309;BME280;3695;53.330;9.876;2022-12-11T01:53:47;102859.22;;;-0.58;100.00
7309;BME280;3695;53.330;9.876;2022-12-11T01:56:14;102865.63;;;-0.47;100.00
7309;BME280;3695;53.330;9.876;2022-12-11T01:58:43;102840.28;;;-0.68;100.00
7309;BME280;3695;53.330;9.876;2022-12-11T02:01:17;102849.34;;;-0.71;100.00
7309;BME280;3695;53.330;9.876;2022-12-11T02:03:47;102855.78;;;-0.75;100.00
7309;BME280;3695;53.330;9.876;2022-12-11T02:06:29;102854.00;;;-0.60;100.00
7309;BME280;3695;53.330;9.876;2022-12-11T02:08:56;102835.44;;;-0.61;100.00
7309;BME280;3695;53.330;9.876;2022-12-11T02:11:25;102821.94;;;-0.73;100.00
7309;BME280;3695;53.330;9.876;2022-12-11T02:14:02;102807.88;;;-0.75;100.00
7309;BME280;3695;53.330;9.876;2022-12-11T02:16:38;102806.25;;;-0.63;100.00
7309;BME280;3695;53.330;9.876;2022-12-11T02:19:13;102808.16;;;-0.65;100.00
7309;BME280;3695;53.330;9.876;2022-12-11T02:21:48;102804.63;;;-0.66;100.00
7309;BME280;3695;53.330;9.876;2022-12-11T02:24:26;102792.38;;;-0.68;100.00
7309;BME280;3695;53.330;9.876;2022-12-11T02:27:26;102810.53;;;-0.60;100.00
7309;BME280;3695;53.330;9.876;2022-12-11T02:30:00;102815.84;;;-0.46;100.00
7309;BME280;3695;53.330;9.876;2022-12-11T02:32:32;102798.63;;;-0.55;100.00
7309;BME280;3695;53.330;9.876;2022-12-11T02:35:05;102803.88;;;-0.68;100.00
7309;BME280;3695;53.330;9.876;2022-12-11T02:37:35;102824.78;;;-0.61;100.00
7309;BME280;3695;53.330;9.876;2022-12-11T02:40:06;102835.63;;;-0.65;100.00
7309;BME280;3695;53.330;9.876;2022-12-11T02:42:36;102839.81;;;-0.75;100.00
7309;BME280;3695;53.330;9.876;2022-12-11T02:45:07;102833.53;;;-0.74;100.00
7309;BME280;3695;53.330;9.876;2022-12-11T02:47:36;102848.56;;;-0.73;100.00
7309;BME280;3695;53.330;9.876;2022-12-11T02:50:08;102833.72;;;-0.63;100.00
7309;BME280;3695;53.330;9.876;2022-12-11T02:52:38;102813.19;;;-0.75;100.00
7309;BME280;3695;53.330;9.876;2022-12-11T02:55:08;102825.84;;;-0.64;100.00
7309;BME280;3695;53.330;9.876;2022-12-11T02:57:38;102824.22;;;-0.81;100.00
7309;BME280;3695;53.330;9.876;2022-12-11T03:00:10;102816.44;;;-0.70;100.00
7309;BME280;3695;53.330;9.876;2022-12-11T03:02:37;102844.56;;;-0.66;100.00
7309;BME280;3695;53.330;9.876;2022-12-11T03:05:04;102837.72;;;-0.70;100.00
7309;BME280;3695;53.330;9.876;2022-12-11T03:07:33;102865.31;;;-0.56;100.00
7309;BME280;3695;53.330;9.876;2022-12-11T03:10:00;102863.59;;;-0.57;100.00
7309;BME280;3695;53.330;9.876;2022-12-11T03:12:29;102860.66;;;-0.67;100.00
7309;BME280;3695;53.330;9.876;2022-12-11T03:14:57;102848.09;;;-0.65;100.00
7309;BME280;3695;53.330;9.876;2022-12-11T03:17:29;102829.34;;;-0.64;100.00
7309;BME280;3695;53.330;9.876;2022-12-11T03:20:02;102813.94;;;-0.58;100.00
7309;BME280;3695;53.330;9.876;2022-12-11T03:22:33;102811.09;;;-0.55;100.00
7309;BME280;3695;53.330;9.876;2022-12-11T03:25:05;102817.56;;;-0.74;100.00
7309;BME280;3695;53.330;9.876;2022-12-11T03:27:36;102815.19;;;-0.92;100.00
7309;BME280;3695;53.330;9.876;2022-12-11T03:30:06;102821.94;;;-0.73;100.00
7309;BME280;3695;53.330;9.876;2022-12-11T03:32:38;102837.53;;;-0.81;100.00
7309;BME280;3695;53.330;9.876;2022-12-11T03:35:08;102822.13;;;-0.76;100.00
7309;BME280;3695;53.330;9.876;2022-12-11T03:37:38;102846.56;;;-0.69;100.00
7309;BME280;3695;53.330;9.876;2022-12-11T03:40:09;102835.34;;;-0.74;100.00
7309;BME280;3695;53.330;9.876;2022-12-11T03:42:37;102847.03;;;-0.63;100.00
7309;BME280;3695;53.330;9.876;2022-12-11T03:45:06;102820.72;;;-0.81;100.00
7309;BME280;3695;53.330;9.876;2022-12-11T03:47:36;102844.28;;;-0.75;100.00
7309;BME280;3695;53.330;9.876;2022-12-11T03:50:04;102851.69;;;-0.80;100.00
7309;BME280;3695;53.330;9.876;2022-12-11T03:52:33;102854.47;;;-0.68;100.00
7309;BME280;3695;53.330;9.876;2022-12-11T03:55:03;102843.25;;;-0.73;100.00
7309;BME280;3695;53.330;9.876;2022-12-11T03:57:33;102846.00;;;-0.74;100.00
7309;BME280;3695;53.330;9.876;2022-12-11T04:00:02;102872.25;;;-0.68;100.00
7309;BME280;3695;53.330;9.876;2022-12-11T04:02:29;102892.97;;;-0.59;100.00
7309;BME280;3695;53.330;9.876;2022-12-11T04:04:57;102870.25;;;-0.65;100.00
7309;BME280;3695;53.330;9.876;2022-12-11T04:07:24;102858.47;;;-0.75;100.00
7309;BME280;3695;53.330;9.876;2022-12-11T04:09:50;102870.81;;;-0.74;100.00
7309;BME280;3695;53.330;9.876;2022-12-11T04:12:16;102882.03;;;-0.69;100.00
7309;BME280;3695;53.330;9.876;2022-12-11T04:14:43;102891.94;;;-0.71;100.00
7309;BME280;3695;53.330;9.876;2022-12-11T04:17:28;102893.16;;;-0.76;100.00
7309;BME280;3695;53.330;9.876;2022-12-11T04:20:15;102897.63;;;-0.77;100.00
7309;BME280;3695;53.330;9.876;2022-12-11T04:22:59;102917.00;;;-0.89;100.00
7309;BME280;3695;53.330;9.876;2022-12-11T04:25:43;102933.19;;;-0.78;100.00
7309;BME280;3695;53.330;9.876;2022-12-11T04:28:10;102902.78;;;-1.04;100.00
7309;BME280;3695;53.330;9.876;2022-12-11T04:30:36;102918.09;;;-1.07;100.00
7309;BME280;3695;53.330;9.876;2022-12-11T04:33:03;102942.09;;;-0.93;100.00
7309;BME280;3695;53.330;9.876;2022-12-11T04:35:30;102961.50;;;-0.91;100.00
7309;BME280;3695;53.330;9.876;2022-12-11T04:37:57;102972.56;;;-0.83;100.00
7309;BME280;3695;53.330;9.876;2022-12-11T04:40:23;102949.66;;;-1.01;100.00
7309;BME280;3695;53.330;9.876;2022-12-11T04:42:50;102977.28;;;-0.88;100.00
7309;BME280;3695;53.330;9.876;2022-12-11T04:45:17;102958.22;;;-0.96;100.00
7309;BME280;3695;53.330;9.876;2022-12-11T04:47:43;102938.66;;;-0.95;100.00
7309;BME280;3695;53.330;9.876;2022-12-11T04:50:13;102954.09;;;-0.86;100.00
7309;BME280;3695;53.330;9.876;2022-12-11T04:52:41;102941.19;;;-0.78;100.00
7309;BME280;3695;53.330;9.876;2022-12-11T04:55:09;102918.34;;;-0.82;100.00
7309;BME280;3695;53.330;9.876;2022-12-11T04:57:36;102906.38;;;-0.89;100.00
7309;BME280;3695;53.330;9.876;2022-12-11T05:00:04;102917.00;;;-0.89;100.00
7309;BME280;3695;53.330;9.876;2022-12-11T05:02:33;102911.31;;;-0.83;100.00
7309;BME280;3695;53.330;9.876;2022-12-11T05:04:59;102889.88;;;-0.96;100.00
7309;BME280;3695;53.330;9.876;2022-12-11T05:07:27;102863.91;;;-1.06;100.00
7309;BME280;3695;53.330;9.876;2022-12-11T05:09:54;102850.78;;;-1.09;100.00
7309;BME280;3695;53.330;9.876;2022-12-11T05:12:21;102862.59;;;-0.99;100.00
7309;BME280;3695;53.330;9.876;2022-12-11T05:14:50;102832.25;;;-1.11;100.00
7309;BME280;3695;53.330;9.876;2022-12-11T05:17:17;102828.84;;;-1.13;100.00
7309;BME280;3695;53.330;9.876;2022-12-11T05:19:43;102818.84;;;-1.09;100.00
7309;BME280;3695;53.330;9.876;2022-12-11T05:22:11;102820.84;;;-0.99;100.00
7309;BME280;3695;53.330;9.876;2022-12-11T05:24:38;102774.88;;;-1.45;100.00
7309;BME280;3695;53.330;9.876;2022-12-11T05:27:06;102766.97;;;-1.61;100.00
7309;BME280;3695;53.330;9.876;2022-12-11T05:29:32;102810.47;;;-1.32;100.00
7309;BME280;3695;53.330;9.876;2022-12-11T05:31:58;102823.03;;;-1.19;100.00
7309;BME280;3695;53.330;9.876;2022-12-11T05:34:25;102822.94;;;-1.04;100.00
7309;BME280;3695;53.330;9.876;2022-12-11T05:36:51;102828.66;;;-1.10;100.00
7309;BME280;3695;53.330;9.876;2022-12-11T05:39:18;102825.97;;;-1.10;100.00
7309;BME280;3695;53.330;9.876;2022-12-11T05:41:45;102799.47;;;-1.11;100.00
7309;BME280;3695;53.330;9.876;2022-12-11T05:44:12;102804.22;;;-1.02;100.00
7309;BME280;3695;53.330;9.876;2022-12-11T05:46:39;102774.84;;;-1.01;100.00
7309;BME280;3695;53.330;9.876;2022-12-11T05:49:06;102775.53;;;-0.97;100.00
7309;BME280;3695;53.330;9.876;2022-12-11T05:51:32;102755.75;;;-1.07;100.00
7309;BME280;3695;53.330;9.876;2022-12-11T05:53:59;102748.63;;;-1.07;100.00
7309;BME280;3695;53.330;9.876;2022-12-11T05:56:27;102746.25;;;-1.11;100.00
7309;BME280;3695;53.330;9.876;2022-12-11T05:58:55;102734.09;;;-1.15;100.00
7309;BME280;3695;53.330;9.876;2022-12-11T06:01:25;102733.81;;;-1.11;100.00
7309;BME280;3695;53.330;9.876;2022-12-11T06:03:53;102728.56;;;-1.12;100.00
7309;BME280;3695;53.330;9.876;2022-12-11T06:06:19;102715.28;;;-1.27;100.00
7309;BME280;3695;53.330;9.876;2022-12-11T06:08:48;102738.19;;;-1.10;100.00
7309;BME280;3695;53.330;9.876;2022-12-11T06:11:14;102666.97;;;-1.77;100.00
7309;BME280;3695;53.330;9.876;2022-12-11T06:13:41;102719.34;;;-1.35;100.00
7309;BME280;3695;53.330;9.876;2022-12-11T06:16:08;102736.00;;;-1.17;100.00
7309;BME280;3695;53.330;9.876;2022-12-11T06:18:36;102677.22;;;-1.71;100.00
7309;BME280;3695;53.330;9.876;2022-12-11T06:21:10;102715.19;;;-1.39;100.00
7309;BME280;3695;53.330;9.876;2022-12-11T06:23:37;102719.94;;;-1.30;100.00
7309;BME280;3695;53.330;9.876;2022-12-11T06:26:04;102734.09;;;-1.15;100.00
7309;BME280;3695;53.330;9.876;2022-12-11T06:28:31;102695.69;;;-1.25;100.00
7309;BME280;3695;53.330;9.876;2022-12-11T06:30:57;102645.06;;;-1.24;100.00
7309;BME280;3695;53.330;9.876;2022-12-11T06:33:24;102581.72;;;-1.32;100.00
7309;BME280;3695;53.330;9.876;2022-12-11T06:35:52;102547.16;;;-1.60;100.00
7309;BME280;3695;53.330;9.876;2022-12-11T06:38:18;102544.50;;;-1.74;100.00
7309;BME280;3695;53.330;9.876;2022-12-11T06:40:45;102564.53;;;-1.54;100.00
7309;BME280;3695;53.330;9.876;2022-12-11T06:43:11;102550.19;;;-1.52;100.00
7309;BME280;3695;53.330;9.876;2022-12-11T06:45:38;102555.59;;;-1.39;100.00
7309;BME280;3695;53.330;9.876;2022-12-11T06:48:05;102543.97;;;-1.24;100.00
7309;BME280;3695;53.330;9.876;2022-12-11T06:50:31;102510.25;;;-1.23;100.00
7309;BME280;3695;53.330;9.876;2022-12-11T06:52:59;102482.84;;;-1.38;100.00
7309;BME280;3695;53.330;9.876;2022-12-11T06:55:25;102474.22;;;-1.56;100.00
7309;BME280;3695;53.330;9.876;2022-12-11T06:57:52;102501.78;;;-1.71;100.00
7309;BME280;3695;53.330;9.876;2022-12-11T07:00:18;102530.06;;;-1.70;100.00
7309;BME280;3695;53.330;9.876;2022-12-11T07:02:45;102519.63;;;-1.73;100.00
7309;BME280;3695;53.330;9.876;2022-12-11T07:05:11;102526.84;;;-1.90;100.00
7309;BME280;3695;53.330;9.876;2022-12-11T07:07:37;102543.38;;;-1.84;100.00
7309;BME280;3695;53.330;9.876;2022-12-11T07:10:06;102537.09;;;-1.98;100.00
7309;BME280;3695;53.330;9.876;2022-12-11T07:12:34;102557.97;;;-1.92;100.00
7309;BME280;3695;53.330;9.876;2022-12-11T07:15:01;102546.94;;;-2.14;100.00
7309;BME280;3695;53.330;9.876;2022-12-11T07:17:28;102562.41;;;-1.92;100.00
7309;BME280;3695;53.330;9.876;2022-12-11T07:19:54;102586.94;;;-1.87;100.00
7309;BME280;3695;53.330;9.876;2022-12-11T07:22:21;102579.22;;;-1.92;100.00
7309;BME280;3695;53.330;9.876;2022-12-11T07:24:48;102592.50;;;-2.06;100.00
7309;BME280;3695;53.330;9.876;2022-12-11T07:27:15;102576.34;;;-2.47;100.00
7309;BME280;3695;53.330;9.876;2022-12-11T07:29:42;102612.09;;;-2.23;100.00
7309;BME280;3695;53.330;9.876;2022-12-11T07:32:09;102631.75;;;-2.11;100.00
7309;BME280;3695;53.330;9.876;2022-12-11T07:34:36;102639.66;;;-2.09;100.00
7309;BME280;3695;53.330;9.876;2022-12-11T07:37:03;102632.91;;;-2.15;100.00
7309;BME280;3695;53.330;9.876;2022-12-11T07:39:29;102659.69;;;-2.04;100.00
7309;BME280;3695;53.330;9.876;2022-12-11T07:41:56;102691.69;;;-1.91;100.00
7309;BME280;3695;53.330;9.876;2022-12-11T07:44:23;102664.13;;;-2.34;100.00
7309;BME280;3695;53.330;9.876;2022-12-11T07:46:50;102687.50;;;-2.41;100.00
7309;BME280;3695;53.330;9.876;2022-12-11T07:49:16;102685.91;;;-2.75;100.00
7309;BME280;3695;53.330;9.876;2022-12-11T07:51:43;102753.97;;;-2.42;100.00
7309;BME280;3695;53.330;9.876;2022-12-11T07:54:11;102751.75;;;-2.50;100.00
7309;BME280;3695;53.330;9.876;2022-12-11T07:56:40;102768.19;;;-2.43;100.00
7309;BME280;3695;53.330;9.876;2022-12-11T07:59:07;102799.75;;;-2.22;100.00
7309;BME280;3695;53.330;9.876;2022-12-11T08:01:36;102819.78;;;-2.16;100.00
7309;BME280;3695;53.330;9.876;2022-12-11T08:04:04;102796.47;;;-2.42;100.00
7309;BME280;3695;53.330;9.876;2022-12-11T08:06:32;102787.03;;;-2.64;100.00
7309;BME280;3695;53.330;9.876;2022-12-11T08:09:02;102821.47;;;-2.46;100.00
7309;BME280;3695;53.330;9.876;2022-12-11T08:11:29;102835.91;;;-2.35;100.00
7309;BME280;3695;53.330;9.876;2022-12-11T08:13:57;102848.63;;;-2.41;100.00
7309;BME280;3695;53.330;9.876;2022-12-11T08:16:25;102817.59;;;-2.72;100.00
7309;BME280;3695;53.330;9.876;2022-12-11T08:18:52;102874.63;;;-2.31;100.00
7309;BME280;3695;53.330;9.876;2022-12-11T08:21:20;102867.75;;;-2.35;100.00
7309;BME280;3695;53.330;9.876;2022-12-11T08:23:47;102865.34;;;-2.39;100.00
7309;BME280;3695;53.330;9.876;2022-12-11T08:26:16;102864.44;;;-2.56;100.00
7309;BME280;3695;53.330;9.876;2022-12-11T08:28:43;102879.81;;;-2.45;100.00
7309;BME280;3695;53.330;9.876;2022-12-11T08:31:11;102874.47;;;-2.61;100.00
7309;BME280;3695;53.330;9.876;2022-12-11T08:33:39;102906.59;;;-2.49;100.00
7309;BME280;3695;53.330;9.876;2022-12-11T08:36:09;102939.38;;;-2.33;100.00
7309;BME280;3695;53.330;9.876;2022-12-11T08:38:36;102932.38;;;-2.18;100.00
7309;BME280;3695;53.330;9.876;2022-12-11T08:41:07;102889.56;;;-2.45;100.00
7309;BME280;3695;53.330;9.876;2022-12-11T08:43:34;102906.75;;;-2.35;100.00
7309;BME280;3695;53.330;9.876;2022-12-11T08:46:00;102894.88;;;-2.45;100.00
7309;BME280;3695;53.330;9.876;2022-12-11T08:48:26;102911.25;;;-2.37;100.00
7309;BME280;3695;53.330;9.876;2022-12-11T08:50:53;102883.19;;;-2.59;100.00
7309;BME280;3695;53.330;9.876;2022-12-11T08:53:21;102927.75;;;-2.15;100.00
7309;BME280;3695;53.330;9.876;2022-12-11T08:55:47;102899.81;;;-2.22;100.00
7309;BME280;3695;53.330;9.876;2022-12-11T08:58:13;102906.09;;;-2.07;100.00
7309;BME280;3695;53.330;9.876;2022-12-11T09:00:40;102891.63;;;-1.86;100.00
7309;BME280;3695;53.330;9.876;2022-12-11T09:03:07;102858.00;;;-2.18;100.00
7309;BME280;3695;53.330;9.876;2022-12-11T09:05:34;102813.44;;;-2.29;100.00
7309;BME280;3695;53.330;9.876;2022-12-11T09:08:03;102856.13;;;-2.01;100.00
7309;BME280;3695;53.330;9.876;2022-12-11T09:10:31;102849.59;;;-1.95;100.00
7309;BME280;3695;53.330;9.876;2022-12-11T09:12:57;102836.84;;;-1.88;100.00
7309;BME280;3695;53.330;9.876;2022-12-11T09:15:23;102815.84;;;-2.09;100.00
7309;BME280;3695;53.330;9.876;2022-12-11T09:17:50;102826.97;;;-1.86;100.00
7309;BME280;3695;53.330;9.876;2022-12-11T09:20:16;102792.59;;;-2.05;100.00
7309;BME280;3695;53.330;9.876;2022-12-11T09:22:43;102782.34;;;-2.11;100.00
7309;BME280;3695;53.330;9.876;2022-12-11T09:25:09;102775.38;;;-1.82;100.00
7309;BME280;3695;53.330;9.876;2022-12-11T09:27:37;102781.72;;;-1.85;100.00
7309;BME280;3695;53.330;9.876;2022-12-11T09:30:04;102769.38;;;-1.86;100.00
7309;BME280;3695;53.330;9.876;2022-12-11T09:32:31;102756.25;;;-1.89;100.00
7309;BME280;3695;53.330;9.876;2022-12-11T09:34:57;102751.94;;;-1.92;100.00
7309;BME280;3695;53.330;9.876;2022-12-11T09:37:24;102765.72;;;-1.69;100.00
7309;BME280;3695;53.330;9.876;2022-12-11T09:39:50;102724.09;;;-1.84;100.00
7309;BME280;3695;53.330;9.876;2022-12-11T09:42:20;102730.88;;;-1.65;100.00
7309;BME280;3695;53.330;9.876;2022-12-11T09:44:53;102670.19;;;-1.72;100.00
7309;BME280;3695;53.330;9.876;2022-12-11T09:47:26;102690.16;;;-1.65;100.00
7309;BME280;3695;53.330;9.876;2022-12-11T09:50:02;102656.34;;;-1.77;100.00
7309;BME280;3695;53.330;9.876;2022-12-11T09:52:34;102662.78;;;-1.81;100.00
7309;BME280;3695;53.330;9.876;2022-12-11T09:55:08;102669.34;;;-1.73;100.00
7309;BME280;3695;53.330;9.876;2022-12-11T09:57:44;102685.78;;;-1.52;100.00
7309;BME280;3695;53.330;9.876;2022-12-11T10:00:19;102637.34;;;-1.85;100.00
7309;BME280;3695;53.330;9.876;2022-12-11T10:03:09;102640.78;;;-1.69;100.00
7309;BME280;3695;53.330;9.876;2022-12-11T10:05:46;102575.13;;;-1.97;100.00
7309;BME280;3695;53.330;9.876;2022-12-11T10:08:20;102585.91;;;-1.84;100.00
7309;BME280;3695;53.330;9.876;2022-12-11T10:10:54;102621.69;;;-1.47;100.00
7309;BME280;3695;53.330;9.876;2022-12-11T10:13:30;102547.56;;;-1.80;100.00
7309;BME280;3695;53.330;9.876;2022-12-11T10:16:11;102525.34;;;-1.79;100.00
7309;BME280;3695;53.330;9.876;2022-12-11T10:18:43;102523.41;;;-1.49;100.00
7309;BME280;3695;53.330;9.876;2022-12-11T10:21:11;102448.56;;;-1.84;100.00
7309;BME280;3695;53.330;9.876;2022-12-11T10:23:43;102451.25;;;-1.57;100.00
7309;BME280;3695;53.330;9.876;2022-12-11T10:26:21;102416.78;;;-1.59;100.00
7309;BME280;3695;53.330;9.876;2022-12-11T10:28:47;102422.22;;;-1.33;100.00
7309;BME280;3695;53.330;9.876;2022-12-11T10:31:17;102435.22;;;-1.29;100.00
7309;BME280;3695;53.330;9.876;2022-12-11T10:33:53;102396.97;;;-1.67;100.00
7309;BME280;3695;53.330;9.876;2022-12-11T10:36:26;102412.00;;;-1.39;100.00
7309;BME280;3695;53.330;9.876;2022-12-11T10:38:53;102417.59;;;-1.44;100.00
7309;BME280;3695;53.330;9.876;2022-12-11T10:41:22;102450.56;;;-1.19;100.00
7309;BME280;3695;53.330;9.876;2022-12-11T10:43:51;102438.41;;;-1.23;100.00
7309;BME280;3695;53.330;9.876;2022-12-11T10:46:21;102459.03;;;-1.00;100.00
7309;BME280;3695;53.330;9.876;2022-12-11T10:48:49;102431.41;;;-1.24;100.00
7309;BME280;3695;53.330;9.876;2022-12-11T10:51:18;102409.41;;;-1.14;100.00
7309;BME280;3695;53.330;9.876;2022-12-11T10:53:49;102394.28;;;-1.13;100.00
7309;BME280;3695;53.330;9.876;2022-12-11T10:56:24;102475.66;;;-0.19;100.00
7309;BME280;3695;53.330;9.876;2022-12-11T10:58:51;102455.63;;;0.01;100.00
7309;BME280;3695;53.330;9.876;2022-12-11T11:01:21;102436.94;;;0.98;100.00
7309;BME280;3695;53.330;9.876;2022-12-11T11:03:54;102300.50;;;0.90;100.00
7309;BME280;3695;53.330;9.876;2022-12-11T11:06:23;102193.31;;;0.04;100.00
7309;BME280;3695;53.330;9.876;2022-12-11T11:08:51;102148.28;;;-0.47;100.00
7309;BME280;3695;53.330;9.876;2022-12-11T11:11:25;102088.75;;;-1.07;100.00
7309;BME280;3695;53.330;9.876;2022-12-11T11:14:04;102097.09;;;-0.87;100.00
7309;BME280;3695;53.330;9.876;2022-12-11T11:16:35;102131.38;;;-0.59;100.00
7309;BME280;3695;53.330;9.876;2022-12-11T11:19:02;102137.22;;;-0.78;100.00
7309;BME280;3695;53.330;9.876;2022-12-11T11:21:29;102123.72;;;-1.37;100.00
7309;BME280;3695;53.330;9.876;2022-12-11T11:23:56;102125.19;;;-1.45;100.00
7309;BME280;3695;53.330;9.876;2022-12-11T11:26:23;102127.34;;;-1.38;100.00
7309;BME280;3695;53.330;9.876;2022-12-11T11:28:52;102125.28;;;-1.21;100.00
7309;BME280;3695;53.330;9.876;2022-12-11T11:31:21;102164.13;;;-0.70;100.00
7309;BME280;3695;53.330;9.876;2022-12-11T11:33:58;102154.19;;;-0.68;100.00
7309;BME280;3695;53.330;9.876;2022-12-11T11:36:29;102145.88;;;-0.63;100.00
7309;BME280;3695;53.330;9.876;2022-12-11T11:39:12;102097.47;;;-1.05;100.00
7309;BME280;3695;53.330;9.876;2022-12-11T11:41:48;102114.03;;;-0.65;100.00
7309;BME280;3695;53.330;9.876;2022-12-11T11:44:19;102120.13;;;-0.39;100.00
7309;BME280;3695;53.330;9.876;2022-12-11T11:46:55;102102.78;;;-0.44;100.00
7309;BME280;3695;53.330;9.876;2022-12-11T11:49:36;102092.88;;;-0.42;100.00
7309;BME280;3695;53.330;9.876;2022-12-11T11:52:12;102081.47;;;-0.44;100.00
7309;BME280;3695;53.330;9.876;2022-12-11T11:54:48;102105.59;;;-0.35;100.00
7309;BME280;3695;53.330;9.876;2022-12-11T11:57:19;102094.44;;;-0.64;100.00
7309;BME280;3695;53.330;9.876;2022-12-11T11:59:50;102080.63;;;-0.69;100.00
7309;BME280;3695;53.330;9.876;2022-12-11T12:02:19;102094.44;;;-0.40;100.00
7309;BME280;3695;53.330;9.876;2022-12-11T12:04:47;102062.31;;;-0.49;100.00
7309;BME280;3695;53.330;9.876;2022-12-11T12:07:25;102044.59;;;-0.61;100.00
7309;BME280;3695;53.330;9.876;2022-12-11T12:10:00;102026.31;;;-0.31;100.00
7309;BME280;3695;53.330;9.876;2022-12-11T12:12:37;102039.84;;;-0.34;100.00
7309;BME280;3695;53.330;9.876;2022-12-11T12:15:19;102069.63;;;-0.40;100.00
7309;BME280;3695;53.330;9.876;2022-12-11T12:17:51;102055.88;;;-0.82;100.00
7309;BME280;3695;53.330;9.876;2022-12-11T12:20:26;102078.28;;;-0.49;100.00
7309;BME280;3695;53.330;9.876;2022-12-11T12:23:01;102084.03;;;-0.43;100.00
7309;BME280;3695;53.330;9.876;2022-12-11T12:25:36;102091.53;;;-0.60;100.00
7309;BME280;3695;53.330;9.876;2022-12-11T12:28:14;102136.22;;;-0.40;100.00
7309;BME280;3695;53.330;9.876;2022-12-11T12:30:51;102140.50;;;-0.50;100.00
7309;BME280;3695;53.330;9.876;2022-12-11T12:33:32;102135.69;;;-0.69;100.00
7309;BME280;3695;53.330;9.876;2022-12-11T12:36:10;102168.84;;;-0.25;100.00
7309;BME280;3695;53.330;9.876;2022-12-11T12:38:47;102185.94;;;-0.17;100.00
7309;BME280;3695;53.330;9.876;2022-12-11T12:41:20;102212.72;;;-0.18;100.00
7309;BME280;3695;53.330;9.876;2022-12-11T12:43:59;102224.72;;;-0.13;100.00
7309;BME280;3695;53.330;9.876;2022-12-11T12:46:40;102197.75;;;-0.32;100.00
7309;BME280;3695;53.330;9.876;2022-12-11T12:49:13;102217.19;;;-0.19;100.00
7309;BME280;3695;53.330;9.876;2022-12-11T12:51:42;102216.47;;;-0.21;100.00
7309;BME280;3695;53.330;9.876;2022-12-11T12:54:15;102186.59;;;-0.37;100.00
7309;BME280;3695;53.330;9.876;2022-12-11T12:56:43;102165.88;;;-0.57;100.00
7309;BME280;3695;53.330;9.876;2022-12-11T12:59:19;102200.13;;;-0.40;100.00
7309;BME280;3695;53.330;9.876;2022-12-11T13:01:48;102221.03;;;-0.23;100.00
7309;BME280;3695;53.330;9.876;2022-12-11T13:04:28;102245.34;;;-0.04;100.00
7309;BME280;3695;53.330;9.876;2022-12-11T13:06:57;102251.84;;;0.05;100.00
7309;BME280;3695;53.330;9.876;2022-12-11T13:09:25;102212.50;;;-0.39;100.00
7309;BME280;3695;53.330;9.876;2022-12-11T13:11:54;102230.22;;;-0.27;100.00